AFR23G KLAX-LFPG
Flight info
| Callsign | AFR23G |
|---|---|
| Flight time | N/A |
| Altitude | 31000 |
| Route | ORCKA5 LAS Q70 BLIPP Q842 WINEN DCT KU60O DCT KU72Q DCT KU09W/N0488F330 DCT 49N100W 5430N09000W 58N080W 5930N07000W DCT RODBO/M083F330 DCT PIDSO DCT 61N050W/M083F350 61N040W 60N030W 58N020W DCT SUNOT/N0480F350 DCT KESIX DCT REVNU/N0474F370 DCT CON DCT OSGAR DCT MORAG DCT NUCHU L18 MID/N0455F290 Y803 SFD UM605 BIBAX |
| Aircraft | B77W/H-SDE2E3FGHIJ3J5M1P2RWXYZ/LB1D1 |
Departure
| Time | 2026-05-06 23:03 |
|---|---|
| Airport | Los Angeles International Airport (KLAX) |
Arrival
| Time | N/A |
|---|---|
| Airport | Charles de Gaulle International Airport (LFPG) |
| Time | Latitude | Longitude | Altitude | Speed | Heading |
|---|---|---|---|---|---|
| 2026-05-06 22:15 | 33.94262 | -118.41107 | 97 ft | 0 kts | 83° |
| 2026-05-06 22:41 | 33.94261 | -118.41121 | 97 ft | 4 kts | 83° |
| 2026-05-06 22:42 | 33.94258 | -118.41153 | 98 ft | 4 kts | 83° |
| 2026-05-06 22:42 | 33.94255 | -118.41179 | 98 ft | 4 kts | 86° |
| 2026-05-06 22:42 | 33.94259 | -118.41208 | 96 ft | 4 kts | 131° |
| 2026-05-06 22:42 | 33.94280 | -118.41223 | 97 ft | 3 kts | 172° |
| 2026-05-06 22:43 | 33.94305 | -118.41227 | 97 ft | 4 kts | 173° |
| 2026-05-06 22:43 | 33.94316 | -118.41228 | 97 ft | 0 kts | 173° |
| 2026-05-06 22:52 | 33.94315 | -118.41228 | 97 ft | 1 kts | 173° |
| 2026-05-06 22:52 | 33.94262 | -118.41220 | 99 ft | 17 kts | 173° |
| 2026-05-06 22:52 | 33.94140 | -118.41201 | 100 ft | 18 kts | 173° |
| 2026-05-06 22:53 | 33.94016 | -118.41183 | 98 ft | 18 kts | 173° |
| 2026-05-06 22:53 | 33.93893 | -118.41165 | 98 ft | 18 kts | 173° |
| 2026-05-06 22:53 | 33.93794 | -118.41146 | 100 ft | 3 kts | 153° |
| 2026-05-06 22:53 | 33.93792 | -118.41143 | 100 ft | 0 kts | 148° |
| 2026-05-06 22:55 | 33.93779 | -118.41128 | 100 ft | 8 kts | 127° |
| 2026-05-06 22:55 | 33.93776 | -118.41001 | 98 ft | 18 kts | 83° |
| 2026-05-06 22:55 | 33.93792 | -118.40849 | 98 ft | 18 kts | 83° |
| 2026-05-06 22:56 | 33.93807 | -118.40697 | 99 ft | 18 kts | 83° |
| 2026-05-06 22:56 | 33.93824 | -118.40542 | 102 ft | 20 kts | 83° |
| 2026-05-06 22:56 | 33.93841 | -118.40376 | 101 ft | 20 kts | 83° |
| 2026-05-06 22:56 | 33.93857 | -118.40210 | 100 ft | 20 kts | 83° |
| 2026-05-06 22:57 | 33.93874 | -118.40044 | 101 ft | 20 kts | 83° |
| 2026-05-06 22:57 | 33.93892 | -118.39870 | 101 ft | 23 kts | 83° |
| 2026-05-06 22:57 | 33.93911 | -118.39682 | 101 ft | 23 kts | 83° |
| 2026-05-06 22:57 | 33.93930 | -118.39494 | 99 ft | 23 kts | 83° |
| 2026-05-06 22:58 | 33.93950 | -118.39306 | 99 ft | 23 kts | 83° |
| 2026-05-06 22:58 | 33.93970 | -118.39119 | 100 ft | 23 kts | 83° |
| 2026-05-06 22:58 | 33.93990 | -118.38915 | 99 ft | 27 kts | 83° |
| 2026-05-06 22:58 | 33.94011 | -118.38704 | 102 ft | 23 kts | 83° |
| 2026-05-06 22:59 | 33.94031 | -118.38515 | 100 ft | 23 kts | 83° |
| 2026-05-06 22:59 | 33.94050 | -118.38326 | 102 ft | 23 kts | 83° |
| 2026-05-06 22:59 | 33.94069 | -118.38139 | 98 ft | 20 kts | 83° |
| 2026-05-06 22:59 | 33.94077 | -118.38055 | 98 ft | 6 kts | 85° |
| 2026-05-06 23:00 | 33.94078 | -118.38052 | 98 ft | 0 kts | 85° |
| 2026-05-06 23:00 | 33.94072 | -118.38030 | 98 ft | 7 kts | 116° |
| 2026-05-06 23:01 | 33.94007 | -118.38006 | 99 ft | 11 kts | 201° |
| 2026-05-06 23:01 | 33.93977 | -118.38086 | 98 ft | 4 kts | 263° |
| 2026-05-06 23:01 | 33.93977 | -118.38087 | 98 ft | 0 kts | 263° |
| 2026-05-06 23:01 | 33.93974 | -118.38116 | 99 ft | 14 kts | 263° |
| 2026-05-06 23:02 | 33.93940 | -118.38441 | 107 ft | 75 kts | 263° |
| 2026-05-06 23:02 | 33.93845 | -118.39373 | 100 ft | 147 kts | 263° |
| 2026-05-06 23:02 | 33.93694 | -118.40844 | 115 ft | 202 kts | 263° |
| 2026-05-06 23:02 | 33.93526 | -118.42550 | 628 ft | 208 kts | 263° |
| 2026-05-06 23:03 | 33.93343 | -118.44327 | 1189 ft | 217 kts | 263° |
| 2026-05-06 23:03 | 33.93177 | -118.46065 | 2056 ft | 204 kts | 264° |
| 2026-05-06 23:03 | 33.93021 | -118.47810 | 2336 ft | 219 kts | 264° |
| 2026-05-06 23:03 | 33.92861 | -118.49696 | 2554 ft | 234 kts | 264° |
| 2026-05-06 23:04 | 33.92705 | -118.51684 | 2961 ft | 241 kts | 265° |
| 2026-05-06 23:04 | 33.92564 | -118.53679 | 3639 ft | 236 kts | 265° |
| 2026-05-06 23:04 | 33.92438 | -118.55656 | 4121 ft | 244 kts | 266° |
| 2026-05-06 23:04 | 33.92319 | -118.57757 | 4404 ft | 257 kts | 266° |
| 2026-05-06 23:05 | 33.92211 | -118.59929 | 4866 ft | 265 kts | 267° |
| 2026-05-06 23:05 | 33.92114 | -118.62175 | 4537 ft | 268 kts | 267° |
| 2026-05-06 23:05 | 33.92023 | -118.64325 | 4771 ft | 252 kts | 267° |
| 2026-05-06 23:05 | 33.91924 | -118.66491 | 4960 ft | 267 kts | 267° |
| 2026-05-06 23:06 | 33.91806 | -118.68741 | 5109 ft | 270 kts | 262° |
| 2026-05-06 23:06 | 33.91134 | -118.70839 | 4975 ft | 273 kts | 230° |
| 2026-05-06 23:06 | 33.89645 | -118.72221 | 4935 ft | 274 kts | 201° |
| 2026-05-06 23:06 | 33.87781 | -118.72571 | 5297 ft | 273 kts | 174° |
| 2026-05-06 23:07 | 33.85977 | -118.71915 | 5930 ft | 274 kts | 149° |
| 2026-05-06 23:07 | 33.84587 | -118.70358 | 6494 ft | 277 kts | 121° |
| 2026-05-06 23:07 | 33.83963 | -118.68180 | 7023 ft | 280 kts | 91° |
| 2026-05-06 23:07 | 33.84276 | -118.65887 | 7543 ft | 280 kts | 67° |
| 2026-05-06 23:08 | 33.85088 | -118.63742 | 8013 ft | 285 kts | 64° |
| 2026-05-06 23:08 | 33.85955 | -118.61585 | 8585 ft | 287 kts | 64° |
| 2026-05-06 23:08 | 33.86826 | -118.59424 | 9207 ft | 287 kts | 64° |
| 2026-05-06 23:08 | 33.87697 | -118.57251 | 9772 ft | 289 kts | 64° |
| 2026-05-06 23:09 | 33.88572 | -118.55052 | 10237 ft | 296 kts | 64° |
| 2026-05-06 23:09 | 33.89487 | -118.52738 | 10389 ft | 315 kts | 64° |
| 2026-05-06 23:09 | 33.90451 | -118.50283 | 10553 ft | 334 kts | 64° |
| 2026-05-06 23:09 | 33.91471 | -118.47679 | 10719 ft | 354 kts | 64° |
| 2026-05-06 23:10 | 33.92545 | -118.44940 | 11006 ft | 368 kts | 63° |
| 2026-05-06 23:10 | 33.93825 | -118.42228 | 11506 ft | 377 kts | 56° |
| 2026-05-06 23:10 | 33.95339 | -118.39615 | 12146 ft | 382 kts | 54° |
| 2026-05-06 23:10 | 33.96862 | -118.36979 | 12892 ft | 385 kts | 55° |
| 2026-05-06 23:11 | 33.98378 | -118.34321 | 13604 ft | 388 kts | 55° |
| 2026-05-06 23:11 | 33.99891 | -118.31652 | 14276 ft | 392 kts | 56° |
| 2026-05-06 23:11 | 34.01433 | -118.28928 | 14915 ft | 396 kts | 55° |
| 2026-05-06 23:11 | 34.02995 | -118.26171 | 15554 ft | 400 kts | 55° |
| 2026-05-06 23:12 | 34.04566 | -118.23399 | 16177 ft | 403 kts | 55° |
| 2026-05-06 23:12 | 34.06161 | -118.20584 | 16815 ft | 407 kts | 55° |
| 2026-05-06 23:12 | 34.07751 | -118.17774 | 17288 ft | 402 kts | 54° |
| 2026-05-06 23:12 | 34.09306 | -118.15024 | 18445 ft | 394 kts | 54° |
| 2026-05-06 23:13 | 34.10860 | -118.12276 | 18969 ft | 398 kts | 54° |
| 2026-05-06 23:13 | 34.12430 | -118.09497 | 19431 ft | 403 kts | 54° |
| 2026-05-06 23:13 | 34.14019 | -118.06681 | 19958 ft | 407 kts | 54° |
| 2026-05-06 23:13 | 34.15602 | -118.03873 | 20709 ft | 403 kts | 54° |
| 2026-05-06 23:14 | 34.17182 | -118.01066 | 21259 ft | 406 kts | 54° |
| 2026-05-06 23:14 | 34.18776 | -117.98232 | 21688 ft | 411 kts | 54° |
| 2026-05-06 23:14 | 34.20395 | -117.95359 | 22088 ft | 415 kts | 54° |
| 2026-05-06 23:14 | 34.22016 | -117.92470 | 22684 ft | 417 kts | 54° |
| 2026-05-06 23:15 | 34.23651 | -117.89554 | 23171 ft | 421 kts | 54° |
| 2026-05-06 23:15 | 34.25303 | -117.86610 | 23584 ft | 426 kts | 54° |
| 2026-05-06 23:15 | 34.26969 | -117.83637 | 24006 ft | 427 kts | 54° |
| 2026-05-06 23:15 | 34.28637 | -117.80657 | 24463 ft | 429 kts | 54° |
| 2026-05-06 23:16 | 34.30318 | -117.77651 | 24801 ft | 433 kts | 54° |
| 2026-05-06 23:16 | 34.32004 | -117.74631 | 25262 ft | 434 kts | 54° |
| 2026-05-06 23:16 | 34.33697 | -117.71607 | 25754 ft | 435 kts | 54° |
| 2026-05-06 23:16 | 34.35444 | -117.68612 | 26110 ft | 437 kts | 51° |
| 2026-05-06 23:17 | 34.37403 | -117.65783 | 26448 ft | 440 kts | 48° |
| 2026-05-06 23:17 | 34.39411 | -117.62978 | 26837 ft | 442 kts | 48° |
| 2026-05-06 23:17 | 34.41422 | -117.60162 | 27240 ft | 443 kts | 48° |
| 2026-05-06 23:17 | 34.43440 | -117.57326 | 27631 ft | 445 kts | 48° |